Portada
METAR-TAF:

METAR-TAF

Aeropuertos :

Aeropuerto de Bhuntar

Kullu / Manali, India

latitud: 31-52-36N, longitud: 77-09-16E, altitud: 1089 m

Observación

El informe se hizo hace 9 horas y 42 minutos, a las 06:00 UTC
Viento 10 kt del sureste
Temperatura 31°C
Humedad 46%
Presión 1005 hPa
Visibilidad: 5000 m
Nubes dispersas a una altura de 2000 ft
calima

METAR: VIBR 040600Z 14010KT 5000 HZ SCT020 31/18 Q1005

Hora: 21:12 (15:42 UTC)

Pronóstico

El informe se hizo hace 16 horas y 42 minutos, a las 23:00 UTC
Pronóstico válido del 04 a las 00 UTC al 04 a las 09 UTC
Viento 2 kt con dirección variable
Visibilidad: 5000 m
Escasas nubes a una altura de 3000 ft
Nubes dispersas a una altura de 9000 ft
neblina, calima

TAF: VIBR 032300Z 0400/0409 VRB02KT 5000 BR HZ FEW030 SCT090

Observaciones y pronósticos meteorológicos de más de 4000 aeropuertos (mensajes METAR y TAF).

Los puntos amarillos y rojos representan las estaciones disponibles.

Ponga el ratón en el punto deseado para ver el nombre de la estación.

Haga clic para ver las observaciones y los pronósticos meteorológicos.

Para cambiar el mapa : haga clic en los botones verdes con una cruz de color negro para hacer un zoom, en el botón verde con un guión para alejar o en las flechas verdes para mapas adyacentes.


METAR-TAF: